sensor_id;sensor_type;location;lat;lon;timestamp;P1;durP1;ratioP1;P2;durP2;ratioP2
54959;SDS011;40860;51.710;8.736;2022-12-20T00:01:15;3.55;;;2.15;;
54959;SDS011;40860;51.710;8.736;2022-12-20T00:05:21;2.55;;;2.13;;
54959;SDS011;40860;51.710;8.736;2022-12-20T00:09:24;2.85;;;2.38;;
54959;SDS011;40860;51.710;8.736;2022-12-20T00:13:27;2.47;;;2.15;;
54959;SDS011;40860;51.710;8.736;2022-12-20T00:17:30;4.10;;;2.40;;
54959;SDS011;40860;51.710;8.736;2022-12-20T00:21:34;4.00;;;2.33;;
54959;SDS011;40860;51.710;8.736;2022-12-20T00:25:38;3.67;;;2.17;;
54959;SDS011;40860;51.710;8.736;2022-12-20T00:29:41;3.47;;;2.45;;
54959;SDS011;40860;51.710;8.736;2022-12-20T00:33:45;2.78;;;2.53;;
54959;SDS011;40860;51.710;8.736;2022-12-20T00:37:50;2.60;;;2.40;;
54959;SDS011;40860;51.710;8.736;2022-12-20T00:41:53;2.42;;;2.25;;
54959;SDS011;40860;51.710;8.736;2022-12-20T00:45:56;2.58;;;2.03;;
54959;SDS011;40860;51.710;8.736;2022-12-20T00:50:00;3.42;;;2.08;;
54959;SDS011;40860;51.710;8.736;2022-12-20T00:54:04;4.57;;;2.30;;
54959;SDS011;40860;51.710;8.736;2022-12-20T00:58:07;3.70;;;2.40;;
54959;SDS011;40860;51.710;8.736;2022-12-20T01:02:10;2.58;;;2.28;;
54959;SDS011;40860;51.710;8.736;2022-12-20T01:06:14;3.70;;;2.22;;
54959;SDS011;40860;51.710;8.736;2022-12-20T01:10:19;2.50;;;1.98;;
54959;SDS011;40860;51.710;8.736;2022-12-20T01:14:22;2.88;;;2.13;;
54959;SDS011;40860;51.710;8.736;2022-12-20T01:18:25;3.20;;;2.35;;
54959;SDS011;40860;51.710;8.736;2022-12-20T01:22:27;3.17;;;2.30;;
54959;SDS011;40860;51.710;8.736;2022-12-20T01:26:32;2.78;;;2.10;;
54959;SDS011;40860;51.710;8.736;2022-12-20T01:30:38;3.47;;;2.40;;
54959;SDS011;40860;51.710;8.736;2022-12-20T01:34:41;3.45;;;2.13;;
54959;SDS011;40860;51.710;8.736;2022-12-20T01:38:44;2.10;;;1.85;;
54959;SDS011;40860;51.710;8.736;2022-12-20T01:42:49;4.90;;;2.65;;
54959;SDS011;40860;51.710;8.736;2022-12-20T01:46:52;2.65;;;2.10;;
54959;SDS011;40860;51.710;8.736;2022-12-20T01:50:56;3.55;;;2.00;;
54959;SDS011;40860;51.710;8.736;2022-12-20T01:55:01;2.80;;;1.92;;
54959;SDS011;40860;51.710;8.736;2022-12-20T01:59:09;2.13;;;1.92;;
54959;SDS011;40860;51.710;8.736;2022-12-20T02:03:14;2.30;;;1.95;;
54959;SDS011;40860;51.710;8.736;2022-12-20T02:07:19;3.85;;;1.77;;
54959;SDS011;40860;51.710;8.736;2022-12-20T02:11:28;2.28;;;2.08;;
54959;SDS011;40860;51.710;8.736;2022-12-20T02:15:53;1.98;;;1.65;;
54959;SDS011;40860;51.710;8.736;2022-12-20T02:20:02;3.58;;;1.90;;
54959;SDS011;40860;51.710;8.736;2022-12-20T02:24:36;2.20;;;1.50;;
54959;SDS011;40860;51.710;8.736;2022-12-20T02:29:10;4.60;;;2.03;;
54959;SDS011;40860;51.710;8.736;2022-12-20T02:33:25;3.50;;;1.80;;
54959;SDS011;40860;51.710;8.736;2022-12-20T02:37:29;3.30;;;1.95;;
54959;SDS011;40860;51.710;8.736;2022-12-20T02:41:33;3.13;;;2.00;;
54959;SDS011;40860;51.710;8.736;2022-12-20T02:45:40;2.22;;;1.63;;
54959;SDS011;40860;51.710;8.736;2022-12-20T02:49:45;2.10;;;1.80;;
54959;SDS011;40860;51.710;8.736;2022-12-20T02:53:51;2.42;;;1.80;;
54959;SDS011;40860;51.710;8.736;2022-12-20T02:57:55;3.33;;;2.00;;
54959;SDS011;40860;51.710;8.736;2022-12-20T03:02:02;2.28;;;1.83;;
54959;SDS011;40860;51.710;8.736;2022-12-20T03:06:09;1.92;;;1.73;;
54959;SDS011;40860;51.710;8.736;2022-12-20T03:10:12;4.93;;;2.08;;
54959;SDS011;40860;51.710;8.736;2022-12-20T03:14:15;3.25;;;1.85;;
54959;SDS011;40860;51.710;8.736;2022-12-20T03:18:20;2.10;;;1.90;;
54959;SDS011;40860;51.710;8.736;2022-12-20T03:22:24;4.10;;;2.33;;
54959;SDS011;40860;51.710;8.736;2022-12-20T03:26:27;2.63;;;2.42;;
54959;SDS011;40860;51.710;8.736;2022-12-20T03:30:33;2.67;;;2.47;;
54959;SDS011;40860;51.710;8.736;2022-12-20T03:34:36;2.58;;;2.38;;
54959;SDS011;40860;51.710;8.736;2022-12-20T03:38:41;2.55;;;2.33;;
54959;SDS011;40860;51.710;8.736;2022-12-20T03:42:44;5.13;;;2.80;;
54959;SDS011;40860;51.710;8.736;2022-12-20T03:46:46;2.70;;;2.30;;
54959;SDS011;40860;51.710;8.736;2022-12-20T03:50:49;3.97;;;2.50;;
54959;SDS011;40860;51.710;8.736;2022-12-20T03:54:54;2.60;;;2.40;;
54959;SDS011;40860;51.710;8.736;2022-12-20T03:59:04;3.55;;;2.58;;
54959;SDS011;40860;51.710;8.736;2022-12-20T04:03:07;3.42;;;2.53;;
54959;SDS011;40860;51.710;8.736;2022-12-20T04:07:10;2.65;;;2.22;;
54959;SDS011;40860;51.710;8.736;2022-12-20T04:11:19;3.67;;;2.67;;
54959;SDS011;40860;51.710;8.736;2022-12-20T04:15:45;3.33;;;3.03;;
54959;SDS011;40860;51.710;8.736;2022-12-20T04:19:51;4.38;;;2.65;;
54959;SDS011;40860;51.710;8.736;2022-12-20T04:23:54;3.97;;;2.90;;
54959;SDS011;40860;51.710;8.736;2022-12-20T04:28:01;4.18;;;2.92;;
54959;SDS011;40860;51.710;8.736;2022-12-20T04:32:04;5.47;;;3.10;;
54959;SDS011;40860;51.710;8.736;2022-12-20T04:36:07;4.50;;;3.25;;
54959;SDS011;40860;51.710;8.736;2022-12-20T04:40:13;4.88;;;4.15;;
54959;SDS011;40860;51.710;8.736;2022-12-20T04:44:23;3.85;;;3.45;;
54959;SDS011;40860;51.710;8.736;2022-12-20T04:48:27;4.32;;;3.70;;
54959;SDS011;40860;51.710;8.736;2022-12-20T04:52:50;5.03;;;4.05;;
54959;SDS011;40860;51.710;8.736;2022-12-20T04:57:11;5.90;;;5.30;;
54959;SDS011;40860;51.710;8.736;2022-12-20T05:01:16;7.68;;;5.88;;
54959;SDS011;40860;51.710;8.736;2022-12-20T05:05:24;7.07;;;6.38;;
54959;SDS011;40860;51.710;8.736;2022-12-20T05:09:31;7.68;;;6.53;;
54959;SDS011;40860;51.710;8.736;2022-12-20T05:13:34;9.63;;;7.95;;
54959;SDS011;40860;51.710;8.736;2022-12-20T05:17:41;10.80;;;8.20;;
54959;SDS011;40860;51.710;8.736;2022-12-20T05:21:46;11.23;;;9.05;;
54959;SDS011;40860;51.710;8.736;2022-12-20T05:26:10;11.13;;;8.43;;
54959;SDS011;40860;51.710;8.736;2022-12-20T05:30:20;10.32;;;8.80;;
54959;SDS011;40860;51.710;8.736;2022-12-20T05:34:25;11.52;;;8.57;;
54959;SDS011;40860;51.710;8.736;2022-12-20T05:38:29;10.50;;;8.35;;
54959;SDS011;40860;51.710;8.736;2022-12-20T05:42:33;11.52;;;8.18;;
54959;SDS011;40860;51.710;8.736;2022-12-20T05:46:37;12.98;;;9.27;;
54959;SDS011;40860;51.710;8.736;2022-12-20T05:50:46;15.77;;;10.73;;
54959;SDS011;40860;51.710;8.736;2022-12-20T05:55:01;12.93;;;9.02;;
54959;SDS011;40860;51.710;8.736;2022-12-20T05:59:05;15.35;;;9.32;;
54959;SDS011;40860;51.710;8.736;2022-12-20T06:03:09;13.68;;;9.63;;
54959;SDS011;40860;51.710;8.736;2022-12-20T06:07:16;11.65;;;8.73;;
54959;SDS011;40860;51.710;8.736;2022-12-20T06:11:23;12.95;;;9.52;;
54959;SDS011;40860;51.710;8.736;2022-12-20T06:15:41;12.95;;;9.90;;
54959;SDS011;40860;51.710;8.736;2022-12-20T06:19:44;12.93;;;9.50;;
54959;SDS011;40860;51.710;8.736;2022-12-20T06:23:51;18.55;;;10.45;;
54959;SDS011;40860;51.710;8.736;2022-12-20T06:27:55;18.35;;;9.95;;
54959;SDS011;40860;51.710;8.736;2022-12-20T06:31:58;17.10;;;12.60;;
54959;SDS011;40860;51.710;8.736;2022-12-20T06:36:01;17.45;;;10.95;;
54959;SDS011;40860;51.710;8.736;2022-12-20T06:40:07;14.40;;;9.77;;
54959;SDS011;40860;51.710;8.736;2022-12-20T06:44:10;15.75;;;9.80;;
54959;SDS011;40860;51.710;8.736;2022-12-20T06:48:13;12.50;;;9.32;;
54959;SDS011;40860;51.710;8.736;2022-12-20T06:52:17;12.60;;;9.45;;
54959;SDS011;40860;51.710;8.736;2022-12-20T06:56:25;13.70;;;9.98;;
54959;SDS011;40860;51.710;8.736;2022-12-20T07:00:28;13.63;;;9.70;;
54959;SDS011;40860;51.710;8.736;2022-12-20T07:04:31;12.05;;;9.70;;
54959;SDS011;40860;51.710;8.736;2022-12-20T07:08:34;12.60;;;10.02;;
54959;SDS011;40860;51.710;8.736;2022-12-20T07:12:38;14.90;;;10.32;;
54959;SDS011;40860;51.710;8.736;2022-12-20T07:16:48;19.67;;;10.20;;
54959;SDS011;40860;51.710;8.736;2022-12-20T07:20:51;12.15;;;8.45;;
54959;SDS011;40860;51.710;8.736;2022-12-20T07:24:54;12.60;;;8.80;;
54959;SDS011;40860;51.710;8.736;2022-12-20T07:28:58;14.98;;;9.10;;
54959;SDS011;40860;51.710;8.736;2022-12-20T07:33:01;12.45;;;8.20;;
54959;SDS011;40860;51.710;8.736;2022-12-20T07:37:04;13.93;;;9.20;;
54959;SDS011;40860;51.710;8.736;2022-12-20T07:41:08;15.18;;;9.45;;
54959;SDS011;40860;51.710;8.736;2022-12-20T07:45:15;10.93;;;8.77;;
54959;SDS011;40860;51.710;8.736;2022-12-20T07:49:17;11.75;;;8.65;;
54959;SDS011;40860;51.710;8.736;2022-12-20T07:53:20;12.65;;;8.50;;
54959;SDS011;40860;51.710;8.736;2022-12-20T07:57:26;17.27;;;7.70;;
54959;SDS011;40860;51.710;8.736;2022-12-20T08:01:34;13.07;;;7.88;;
54959;SDS011;40860;51.710;8.736;2022-12-20T08:05:37;10.95;;;8.15;;
54959;SDS011;40860;51.710;8.736;2022-12-20T08:09:45;11.32;;;8.48;;
54959;SDS011;40860;51.710;8.736;2022-12-20T08:13:48;10.00;;;7.57;;
54959;SDS011;40860;51.710;8.736;2022-12-20T08:17:59;8.98;;;7.45;;
54959;SDS011;40860;51.710;8.736;2022-12-20T08:22:02;8.55;;;7.20;;
54959;SDS011;40860;51.710;8.736;2022-12-20T08:26:05;7.78;;;6.95;;
54959;SDS011;40860;51.710;8.736;2022-12-20T08:30:08;8.82;;;7.30;;
54959;SDS011;40860;51.710;8.736;2022-12-20T08:34:14;8.18;;;7.20;;
54959;SDS011;40860;51.710;8.736;2022-12-20T08:38:17;7.78;;;6.97;;
54959;SDS011;40860;51.710;8.736;2022-12-20T08:42:19;8.35;;;6.95;;
54959;SDS011;40860;51.710;8.736;2022-12-20T08:46:22;12.00;;;7.57;;
54959;SDS011;40860;51.710;8.736;2022-12-20T08:50:27;8.73;;;6.90;;
54959;SDS011;40860;51.710;8.736;2022-12-20T08:54:30;7.90;;;7.03;;
54959;SDS011;40860;51.710;8.736;2022-12-20T08:58:33;9.32;;;6.90;;
54959;SDS011;40860;51.710;8.736;2022-12-20T09:02:36;9.43;;;6.68;;
54959;SDS011;40860;51.710;8.736;2022-12-20T09:06:43;10.50;;;7.40;;
54959;SDS011;40860;51.710;8.736;2022-12-20T09:10:45;8.98;;;7.07;;
54959;SDS011;40860;51.710;8.736;2022-12-20T09:14:48;7.63;;;6.88;;
54959;SDS011;40860;51.710;8.736;2022-12-20T09:18:52;10.07;;;7.13;;
54959;SDS011;40860;51.710;8.736;2022-12-20T09:23:06;10.60;;;7.80;;
54959;SDS011;40860;51.710;8.736;2022-12-20T09:27:09;11.40;;;8.65;;
54959;SDS011;40860;51.710;8.736;2022-12-20T09:31:13;11.75;;;8.85;;
54959;SDS011;40860;51.710;8.736;2022-12-20T09:35:16;10.45;;;8.60;;
54959;SDS011;40860;51.710;8.736;2022-12-20T09:39:25;13.18;;;8.52;;
54959;SDS011;40860;51.710;8.736;2022-12-20T09:43:28;10.95;;;7.78;;
54959;SDS011;40860;51.710;8.736;2022-12-20T09:47:31;10.30;;;8.27;;
54959;SDS011;40860;51.710;8.736;2022-12-20T09:51:41;9.45;;;7.88;;
54959;SDS011;40860;51.710;8.736;2022-12-20T09:56:04;9.82;;;8.18;;
54959;SDS011;40860;51.710;8.736;2022-12-20T10:00:14;10.73;;;8.40;;
54959;SDS011;40860;51.710;8.736;2022-12-20T10:04:20;10.10;;;8.40;;
54959;SDS011;40860;51.710;8.736;2022-12-20T10:08:42;11.07;;;9.02;;
54959;SDS011;40860;51.710;8.736;2022-12-20T10:12:49;15.80;;;10.52;;
54959;SDS011;40860;51.710;8.736;2022-12-20T10:17:03;10.85;;;8.82;;
54959;SDS011;40860;51.710;8.736;2022-12-20T10:21:14;10.27;;;9.07;;
54959;SDS011;40860;51.710;8.736;2022-12-20T10:25:22;16.75;;;8.90;;
54959;SDS011;40860;51.710;8.736;2022-12-20T10:29:31;12.43;;;8.65;;
54959;SDS011;40860;51.710;8.736;2022-12-20T10:33:34;11.43;;;8.55;;
54959;SDS011;40860;51.710;8.736;2022-12-20T10:37:37;11.32;;;9.27;;
54959;SDS011;40860;51.710;8.736;2022-12-20T10:42:00;10.63;;;8.75;;
54959;SDS011;40860;51.710;8.736;2022-12-20T10:46:04;9.18;;;8.07;;
54959;SDS011;40860;51.710;8.736;2022-12-20T10:50:13;9.77;;;7.55;;
54959;SDS011;40860;51.710;8.736;2022-12-20T10:54:19;10.35;;;7.70;;
54959;SDS011;40860;51.710;8.736;2022-12-20T10:58:29;8.73;;;7.28;;
54959;SDS011;40860;51.710;8.736;2022-12-20T11:02:39;8.60;;;7.38;;
54959;SDS011;40860;51.710;8.736;2022-12-20T11:06:44;8.25;;;7.20;;
54959;SDS011;40860;51.710;8.736;2022-12-20T11:10:47;9.70;;;6.78;;
54959;SDS011;40860;51.710;8.736;2022-12-20T11:14:50;8.15;;;6.35;;
54959;SDS011;40860;51.710;8.736;2022-12-20T11:23:40;7.57;;;5.38;;
54959;SDS011;40860;51.710;8.736;2022-12-20T11:27:48;10.23;;;6.95;;
54959;SDS011;40860;51.710;8.736;2022-12-20T11:32:02;6.47;;;4.63;;
54959;SDS011;40860;51.710;8.736;2022-12-20T11:36:23;5.22;;;4.70;;
54959;SDS011;40860;51.710;8.736;2022-12-20T11:40:35;8.63;;;4.88;;
54959;SDS011;40860;51.710;8.736;2022-12-20T11:44:46;5.75;;;4.28;;
54959;SDS011;40860;51.710;8.736;2022-12-20T11:49:13;6.20;;;4.32;;
54959;SDS011;40860;51.710;8.736;2022-12-20T11:53:37;6.32;;;4.07;;
54959;SDS011;40860;51.710;8.736;2022-12-20T11:57:45;3.80;;;3.28;;
54959;SDS011;40860;51.710;8.736;2022-12-20T12:02:17;4.88;;;3.40;;
54959;SDS011;40860;51.710;8.736;2022-12-20T12:06:27;3.80;;;3.38;;
54959;SDS011;40860;51.710;8.736;2022-12-20T12:10:34;5.35;;;3.45;;
54959;SDS011;40860;51.710;8.736;2022-12-20T12:14:44;3.60;;;3.28;;
54959;SDS011;40860;51.710;8.736;2022-12-20T12:18:56;5.03;;;3.80;;
54959;SDS011;40860;51.710;8.736;2022-12-20T12:23:01;4.10;;;3.67;;
54959;SDS011;40860;51.710;8.736;2022-12-20T12:27:14;4.50;;;3.70;;
54959;SDS011;40860;51.710;8.736;2022-12-20T12:31:25;4.20;;;3.50;;
54959;SDS011;40860;51.710;8.736;2022-12-20T12:35:40;5.90;;;3.80;;
54959;SDS011;40860;51.710;8.736;2022-12-20T12:40:02;3.88;;;3.08;;
54959;SDS011;40860;51.710;8.736;2022-12-20T12:44:31;4.53;;;2.80;;
54959;SDS011;40860;51.710;8.736;2022-12-20T12:48:41;3.47;;;2.67;;
54959;SDS011;40860;51.710;8.736;2022-12-20T12:52:48;4.55;;;3.50;;
54959;SDS011;40860;51.710;8.736;2022-12-20T12:56:53;5.40;;;3.53;;
54959;SDS011;40860;51.710;8.736;2022-12-20T13:01:07;6.35;;;3.67;;
54959;SDS011;40860;51.710;8.736;2022-12-20T13:09:36;5.93;;;3.60;;
54959;SDS011;40860;51.710;8.736;2022-12-20T13:13:40;5.97;;;3.70;;
54959;SDS011;40860;51.710;8.736;2022-12-20T13:17:48;7.35;;;3.75;;
54959;SDS011;40860;51.710;8.736;2022-12-20T13:21:54;5.72;;;4.43;;
54959;SDS011;40860;51.710;8.736;2022-12-20T13:25:58;5.57;;;3.80;;
54959;SDS011;40860;51.710;8.736;2022-12-20T13:38:58;4.03;;;3.10;;
54959;SDS011;40860;51.710;8.736;2022-12-20T13:43:04;4.38;;;3.30;;
54959;SDS011;40860;51.710;8.736;2022-12-20T13:47:20;3.90;;;3.13;;
54959;SDS011;40860;51.710;8.736;2022-12-20T13:51:32;3.25;;;2.00;;
54959;SDS011;40860;51.710;8.736;2022-12-20T13:55:36;1.98;;;1.45;;
54959;SDS011;40860;51.710;8.736;2022-12-20T13:59:39;2.55;;;1.77;;
54959;SDS011;40860;51.710;8.736;2022-12-20T14:03:47;3.25;;;1.90;;
54959;SDS011;40860;51.710;8.736;2022-12-20T14:07:54;1.77;;;1.55;;
54959;SDS011;40860;51.710;8.736;2022-12-20T14:12:02;2.03;;;1.83;;
54959;SDS011;40860;51.710;8.736;2022-12-20T14:16:06;2.50;;;1.75;;
54959;SDS011;40860;51.710;8.736;2022-12-20T14:20:12;3.35;;;1.95;;
54959;SDS011;40860;51.710;8.736;2022-12-20T14:24:19;2.83;;;2.00;;
54959;SDS011;40860;51.710;8.736;2022-12-20T14:28:26;3.05;;;1.80;;
54959;SDS011;40860;51.710;8.736;2022-12-20T14:32:34;2.70;;;1.80;;
54959;SDS011;40860;51.710;8.736;2022-12-20T14:36:37;2.90;;;1.90;;
54959;SDS011;40860;51.710;8.736;2022-12-20T14:40:42;2.53;;;2.00;;
54959;SDS011;40860;51.710;8.736;2022-12-20T14:45:00;4.07;;;2.00;;
54959;SDS011;40860;51.710;8.736;2022-12-20T14:49:13;2.45;;;2.03;;
54959;SDS011;40860;51.710;8.736;2022-12-20T14:53:22;3.40;;;2.10;;
54959;SDS011;40860;51.710;8.736;2022-12-20T14:57:38;5.00;;;2.40;;
54959;SDS011;40860;51.710;8.736;2022-12-20T15:01:46;3.58;;;1.75;;
54959;SDS011;40860;51.710;8.736;2022-12-20T15:05:49;2.75;;;2.00;;
54959;SDS011;40860;51.710;8.736;2022-12-20T15:09:52;3.05;;;2.00;;
54959;SDS011;40860;51.710;8.736;2022-12-20T15:13:57;2.55;;;1.73;;
54959;SDS011;40860;51.710;8.736;2022-12-20T15:18:00;2.08;;;1.85;;
54959;SDS011;40860;51.710;8.736;2022-12-20T15:22:03;3.63;;;1.90;;
54959;SDS011;40860;51.710;8.736;2022-12-20T15:26:06;2.88;;;1.70;;
54959;SDS011;40860;51.710;8.736;2022-12-20T15:30:13;2.42;;;2.17;;
54959;SDS011;40860;51.710;8.736;2022-12-20T15:34:18;4.28;;;2.08;;
54959;SDS011;40860;51.710;8.736;2022-12-20T15:38:25;2.70;;;1.95;;
54959;SDS011;40860;51.710;8.736;2022-12-20T15:42:48;2.78;;;2.28;;
54959;SDS011;40860;51.710;8.736;2022-12-20T15:46:54;6.88;;;2.40;;
54959;SDS011;40860;51.710;8.736;2022-12-20T15:50:57;3.25;;;2.28;;
54959;SDS011;40860;51.710;8.736;2022-12-20T15:55:00;4.13;;;2.33;;
54959;SDS011;40860;51.710;8.736;2022-12-20T15:59:03;3.60;;;2.60;;
54959;SDS011;40860;51.710;8.736;2022-12-20T16:03:28;6.20;;;3.33;;
54959;SDS011;40860;51.710;8.736;2022-12-20T16:07:33;5.40;;;2.63;;
54959;SDS011;40860;51.710;8.736;2022-12-20T16:11:35;4.43;;;2.58;;
54959;SDS011;40860;51.710;8.736;2022-12-20T16:15:38;2.90;;;2.20;;
54959;SDS011;40860;51.710;8.736;2022-12-20T16:19:42;5.95;;;3.40;;
54959;SDS011;40860;51.710;8.736;2022-12-20T16:23:45;5.55;;;3.50;;
54959;SDS011;40860;51.710;8.736;2022-12-20T16:27:50;5.28;;;3.40;;
54959;SDS011;40860;51.710;8.736;2022-12-20T16:31:52;4.55;;;3.70;;
54959;SDS011;40860;51.710;8.736;2022-12-20T16:35:57;9.35;;;4.70;;
54959;SDS011;40860;51.710;8.736;2022-12-20T16:39:59;5.93;;;3.88;;
54959;SDS011;40860;51.710;8.736;2022-12-20T16:44:03;6.53;;;3.15;;
54959;SDS011;40860;51.710;8.736;2022-12-20T16:48:06;6.43;;;3.45;;
54959;SDS011;40860;51.710;8.736;2022-12-20T16:56:17;6.07;;;3.72;;
54959;SDS011;40860;51.710;8.736;2022-12-20T17:00:20;4.38;;;3.70;;
54959;SDS011;40860;51.710;8.736;2022-12-20T17:04:25;5.45;;;3.33;;
54959;SDS011;40860;51.710;8.736;2022-12-20T17:08:29;4.53;;;3.38;;
54959;SDS011;40860;51.710;8.736;2022-12-20T17:12:50;4.88;;;3.78;;
54959;SDS011;40860;51.710;8.736;2022-12-20T17:16:53;5.85;;;4.35;;
54959;SDS011;40860;51.710;8.736;2022-12-20T17:20:56;5.68;;;4.63;;
54959;SDS011;40860;51.710;8.736;2022-12-20T17:25:00;6.15;;;5.13;;
54959;SDS011;40860;51.710;8.736;2022-12-20T17:29:04;8.27;;;6.10;;
54959;SDS011;40860;51.710;8.736;2022-12-20T17:33:08;7.80;;;5.82;;
54959;SDS011;40860;51.710;8.736;2022-12-20T17:37:15;6.18;;;5.57;;
54959;SDS011;40860;51.710;8.736;2022-12-20T17:41:24;9.13;;;6.28;;
54959;SDS011;40860;51.710;8.736;2022-12-20T17:45:29;7.88;;;6.28;;
54959;SDS011;40860;51.710;8.736;2022-12-20T17:49:36;7.90;;;6.80;;
54959;SDS011;40860;51.710;8.736;2022-12-20T17:53:40;9.27;;;7.15;;
54959;SDS011;40860;51.710;8.736;2022-12-20T17:57:44;9.57;;;8.00;;
54959;SDS011;40860;51.710;8.736;2022-12-20T18:01:48;10.98;;;8.40;;
54959;SDS011;40860;51.710;8.736;2022-12-20T18:05:51;12.63;;;8.23;;
54959;SDS011;40860;51.710;8.736;2022-12-20T18:09:55;12.77;;;9.60;;
54959;SDS011;40860;51.710;8.736;2022-12-20T18:13:59;8.77;;;7.88;;
54959;SDS011;40860;51.710;8.736;2022-12-20T18:18:02;10.23;;;7.55;;
54959;SDS011;40860;51.710;8.736;2022-12-20T18:22:05;9.85;;;7.13;;
54959;SDS011;40860;51.710;8.736;2022-12-20T18:26:09;9.23;;;7.03;;
54959;SDS011;40860;51.710;8.736;2022-12-20T18:30:15;8.73;;;7.47;;
54959;SDS011;40860;51.710;8.736;2022-12-20T18:34:18;9.23;;;7.20;;
54959;SDS011;40860;51.710;8.736;2022-12-20T18:38:21;9.00;;;7.07;;
54959;SDS011;40860;51.710;8.736;2022-12-20T18:42:23;9.25;;;7.60;;
54959;SDS011;40860;51.710;8.736;2022-12-20T18:46:28;10.30;;;7.18;;
54959;SDS011;40860;51.710;8.736;2022-12-20T18:50:34;8.57;;;6.97;;
54959;SDS011;40860;51.710;8.736;2022-12-20T18:54:38;7.55;;;6.68;;
54959;SDS011;40860;51.710;8.736;2022-12-20T18:58:41;6.70;;;6.03;;
54959;SDS011;40860;51.710;8.736;2022-12-20T19:02:46;9.07;;;7.10;;
54959;SDS011;40860;51.710;8.736;2022-12-20T19:06:49;8.07;;;6.13;;
54959;SDS011;40860;51.710;8.736;2022-12-20T19:10:52;7.95;;;6.70;;
54959;SDS011;40860;51.710;8.736;2022-12-20T19:14:58;6.88;;;6.18;;
54959;SDS011;40860;51.710;8.736;2022-12-20T19:19:02;9.48;;;6.43;;
54959;SDS011;40860;51.710;8.736;2022-12-20T19:23:05;7.78;;;6.22;;
54959;SDS011;40860;51.710;8.736;2022-12-20T19:27:08;9.27;;;6.53;;
54959;SDS011;40860;51.710;8.736;2022-12-20T19:31:12;9.65;;;6.18;;
54959;SDS011;40860;51.710;8.736;2022-12-20T19:35:23;8.30;;;6.32;;
54959;SDS011;40860;51.710;8.736;2022-12-20T19:39:46;8.45;;;6.60;;
54959;SDS011;40860;51.710;8.736;2022-12-20T19:43:49;8.80;;;6.18;;
54959;SDS011;40860;51.710;8.736;2022-12-20T19:47:52;7.75;;;6.32;;
54959;SDS011;40860;51.710;8.736;2022-12-20T19:51:56;9.15;;;6.60;;
54959;SDS011;40860;51.710;8.736;2022-12-20T19:56:00;10.93;;;7.60;;
54959;SDS011;40860;51.710;8.736;2022-12-20T20:00:04;8.00;;;5.53;;
54959;SDS011;40860;51.710;8.736;2022-12-20T20:04:11;8.05;;;6.03;;
54959;SDS011;40860;51.710;8.736;2022-12-20T20:08:15;9.43;;;6.10;;
54959;SDS011;40860;51.710;8.736;2022-12-20T20:12:18;8.02;;;5.80;;
54959;SDS011;40860;51.710;8.736;2022-12-20T20:16:22;7.55;;;5.65;;
54959;SDS011;40860;51.710;8.736;2022-12-20T20:20:25;7.85;;;5.07;;
54959;SDS011;40860;51.710;8.736;2022-12-20T20:24:32;7.55;;;5.80;;
54959;SDS011;40860;51.710;8.736;2022-12-20T20:28:35;6.22;;;4.72;;
54959;SDS011;40860;51.710;8.736;2022-12-20T20:32:45;8.27;;;5.60;;
54959;SDS011;40860;51.710;8.736;2022-12-20T20:36:48;8.35;;;4.93;;
54959;SDS011;40860;51.710;8.736;2022-12-20T20:40:52;8.55;;;4.90;;
54959;SDS011;40860;51.710;8.736;2022-12-20T20:44:57;6.47;;;4.88;;
54959;SDS011;40860;51.710;8.736;2022-12-20T20:49:00;8.40;;;6.15;;
54959;SDS011;40860;51.710;8.736;2022-12-20T20:53:03;10.48;;;6.55;;
54959;SDS011;40860;51.710;8.736;2022-12-20T20:57:08;8.10;;;6.53;;
54959;SDS011;40860;51.710;8.736;2022-12-20T21:01:11;8.48;;;6.40;;
54959;SDS011;40860;51.710;8.736;2022-12-20T21:05:14;8.18;;;6.15;;
54959;SDS011;40860;51.710;8.736;2022-12-20T21:09:37;6.78;;;6.07;;
54959;SDS011;40860;51.710;8.736;2022-12-20T21:13:41;8.85;;;6.45;;
54959;SDS011;40860;51.710;8.736;2022-12-20T21:17:44;7.45;;;5.45;;
54959;SDS011;40860;51.710;8.736;2022-12-20T21:21:47;8.82;;;5.70;;
54959;SDS011;40860;51.710;8.736;2022-12-20T21:25:54;5.90;;;4.50;;
54959;SDS011;40860;51.710;8.736;2022-12-20T21:29:58;4.32;;;3.63;;
54959;SDS011;40860;51.710;8.736;2022-12-20T21:34:01;3.88;;;3.05;;
54959;SDS011;40860;51.710;8.736;2022-12-20T21:38:04;4.18;;;2.83;;
54959;SDS011;40860;51.710;8.736;2022-12-20T21:42:07;4.53;;;2.67;;
54959;SDS011;40860;51.710;8.736;2022-12-20T21:46:11;3.65;;;3.03;;
54959;SDS011;40860;51.710;8.736;2022-12-20T21:50:15;2.45;;;2.25;;
54959;SDS011;40860;51.710;8.736;2022-12-20T21:54:18;2.97;;;2.55;;
54959;SDS011;40860;51.710;8.736;2022-12-20T21:58:20;3.25;;;2.85;;
54959;SDS011;40860;51.710;8.736;2022-12-20T22:02:25;3.03;;;2.53;;
54959;SDS011;40860;51.710;8.736;2022-12-20T22:06:28;3.22;;;2.90;;
54959;SDS011;40860;51.710;8.736;2022-12-20T22:10:32;5.32;;;3.85;;
54959;SDS011;40860;51.710;8.736;2022-12-20T22:14:34;4.30;;;2.88;;
54959;SDS011;40860;51.710;8.736;2022-12-20T22:18:39;4.00;;;2.75;;
54959;SDS011;40860;51.710;8.736;2022-12-20T22:22:43;3.22;;;2.92;;
54959;SDS011;40860;51.710;8.736;2022-12-20T22:26:46;3.10;;;2.80;;
54959;SDS011;40860;51.710;8.736;2022-12-20T22:30:49;4.78;;;2.80;;
54959;SDS011;40860;51.710;8.736;2022-12-20T22:34:54;3.20;;;2.90;;
54959;SDS011;40860;51.710;8.736;2022-12-20T22:38:56;4.70;;;3.20;;
54959;SDS011;40860;51.710;8.736;2022-12-20T22:42:59;3.65;;;3.20;;
54959;SDS011;40860;51.710;8.736;2022-12-20T22:47:02;3.95;;;3.25;;
54959;SDS011;40860;51.710;8.736;2022-12-20T22:51:08;4.13;;;3.80;;
54959;SDS011;40860;51.710;8.736;2022-12-20T22:55:12;4.38;;;3.33;;
54959;SDS011;40860;51.710;8.736;2022-12-20T22:59:15;5.35;;;3.67;;
54959;SDS011;40860;51.710;8.736;2022-12-20T23:03:18;4.32;;;3.92;;
54959;SDS011;40860;51.710;8.736;2022-12-20T23:07:22;6.65;;;4.40;;
54959;SDS011;40860;51.710;8.736;2022-12-20T23:11:26;6.63;;;5.88;;
54959;SDS011;40860;51.710;8.736;2022-12-20T23:15:47;9.98;;;8.00;;
54959;SDS011;40860;51.710;8.736;2022-12-20T23:19:50;8.60;;;7.57;;
54959;SDS011;40860;51.710;8.736;2022-12-20T23:24:12;11.10;;;8.15;;
54959;SDS011;40860;51.710;8.736;2022-12-20T23:28:15;9.68;;;8.65;;
54959;SDS011;40860;51.710;8.736;2022-12-20T23:32:18;12.05;;;9.02;;
54959;SDS011;40860;51.710;8.736;2022-12-20T23:36:21;10.27;;;8.80;;
54959;SDS011;40860;51.710;8.736;2022-12-20T23:40:25;12.60;;;9.73;;
54959;SDS011;40860;51.710;8.736;2022-12-20T23:44:28;10.55;;;9.27;;
54959;SDS011;40860;51.710;8.736;2022-12-20T23:48:31;12.13;;;9.98;;
54959;SDS011;40860;51.710;8.736;2022-12-20T23:52:35;14.07;;;10.13;;
54959;SDS011;40860;51.710;8.736;2022-12-20T23:56:39;10.65;;;9.50;;
